Pahala, HI (96777)

3:06 AM HST on February 09, 2016 (GMT -1000)
Discovery Harbour - South | | Change Station
CLOSE
Current Station
Personal Weather Station
Location: Mountain View, HI
Elevation: 1047 ft
Nearby Weather Stations

Elev 1047 ft 19.03 °N, 155.63 °W | Updated 11 seconds ago

Clear
Clear
61.7 °F
Feels Like 61.7 °F
N
2.7
Wind Variable Wind from WNW
Gusts 5.8 mph

Today
High -- | Low -- °F
--% Chance of Precip.
Yesterday
High -- | Low -- °F
Precip. -- in
Pressure 30.01 in
Visibility 10.0 miles
Clouds Clear
Dew Point 56 °F
Humidity 81%
Rainfall 0.00 in
Snow Depth Not available.
6:53 AM 6:19 PM
New Moon, 1% visible
METAR PHTO 091253Z 23006KT 10SM CLR 18/12 A3001 RMK AO2 SLP160 T01780122 $
Pressure 30.01 in
Visibility 10.0 miles
Clouds Clear
Dew Point 56 °F
Humidity 81%
Rainfall 0.00 in
Snow Depth Not available.
6:53 AM 6:19 PM
New Moon, 1% visible
METAR PHTO 091253Z 23006KT 10SM CLR 18/12 A3001 RMK AO2 SLP160 T01780122 $

10-Day Weather Forecast

Almanac

Astronomy

Feb. 09, 2016 Rise Set
Actual Time
Civil Twilight
Nautical Twilight
Astronomical Twilight
Moon
Length of Visible Light
Length of Day
Tomorrow will be .
, % of the Moon is Illuminated

Today's Extremes

State Highs State Lows

Community

WunderPhotos

Upload Photos

1,891,589 photos uploaded!

WunderBlog® & News

Nearby

Air Quality

  Air Quality AQ Index Pollutant
Not available.

Snow Depth

Station Depth Elevation

Earthquake Activity

City Distance Mag. Time & Date
Minimum magnitude displayed is 2.5.

Coastal Water Temperatures

Place Temperature

Stations

Nearby Weather Stations

Station Location Temp. Windchill Dew Point Humidity Wind Precip. Elev Updated Type
                   

Watches & Warnings

There are currently no watches in effect.